Time;durP1;ratioP1;P1;durP2;ratioP2;P2;SDS_P1;SDS_P2;PMS_P1;PMS_P2;Temp;Humidity;BMP_temperature;BMP_pressure;BME280_temperature;BME280_humidity;BME280_pressure;Samples;Min_cycle;Max_cycle;Signal;HPM_P1;HPM_P2
2022/06/26 00:00:41;;;;;;;4.40;2.65;;;;;;;21.39;60.15;101135.81;5103858;28;20082;-62
2022/06/26 00:03:09;;;;;;;7.03;3.55;;;;;;;21.37;60.14;101127.09;5093396;28;20060;-62
2022/06/26 00:05:37;;;;;;;6.07;3.10;;;;;;;21.36;60.12;101132.84;5102147;28;20048;-62
2022/06/26 00:08:06;;;;;;;6.13;2.90;;;;;;;21.34;59.96;101122.19;5101047;28;20344;-63
2022/06/26 00:10:33;;;;;;;4.85;3.03;;;;;;;21.32;60.06;101124.41;5095530;28;20145;-62
2022/06/26 00:13:01;;;;;;;4.90;3.33;;;;;;;21.25;60.29;101121.19;5104098;28;20047;-63
2022/06/26 00:15:30;;;;;;;6.75;2.88;;;;;;;21.30;60.08;101137.53;5101989;28;20040;-63
2022/06/26 00:17:58;;;;;;;5.47;2.83;;;;;;;21.29;60.03;101135.91;5105109;28;20072;-62
2022/06/26 00:20:26;;;;;;;5.97;3.25;;;;;;;21.28;60.15;101134.28;5096021;28;20083;-61
2022/06/26 00:22:53;;;;;;;5.00;3.22;;;;;;;21.26;60.49;101136.47;5102164;28;20086;-62
2022/06/26 00:25:21;;;;;;;5.60;3.15;;;;;;;21.25;60.51;101132.13;5100987;28;20052;-63
2022/06/26 00:27:49;;;;;;;4.35;2.80;;;;;;;21.24;60.21;101132.41;5101615;28;20040;-63
2022/06/26 00:30:17;;;;;;;5.38;3.25;;;;;;;21.22;60.27;101132.69;5090514;28;20055;-63
2022/06/26 00:32:46;;;;;;;4.47;2.75;;;;;;;21.22;60.01;101145.53;5101601;28;20082;-63
2022/06/26 00:35:14;;;;;;;5.65;3.13;;;;;;;21.21;60.26;101141.13;5100725;28;20810;-63
2022/06/26 00:37:41;;;;;;;4.65;3.53;;;;;;;21.18;60.38;101144.44;5091025;28;20044;-63
2022/06/26 00:40:10;;;;;;;7.35;3.78;;;;;;;21.18;60.29;101152.66;5099466;28;20110;-62
2022/06/26 00:42:37;;;;;;;5.05;3.40;;;;;;;21.16;60.16;101163.88;5098593;28;20044;-62
2022/06/26 00:45:06;;;;;;;4.00;3.42;;;;;;;21.16;60.38;101163.88;5103005;28;20109;-63
2022/06/26 00:47:34;;;;;;;7.20;3.75;;;;;;;21.14;60.48;101171.53;5097590;28;20075;-62
2022/06/26 00:50:07;;;;;;;5.47;3.90;;;;;;;21.13;60.28;101167.97;5099790;28;20097;-62
2022/06/26 00:52:36;;;;;;;6.28;3.70;;;;;;;21.14;60.34;101171.53;5100536;28;20083;-62
2022/06/26 00:55:04;;;;;;;6.55;4.43;;;;;;;21.13;60.54;101173.44;5100035;28;20055;-63
2022/06/26 00:57:33;;;;;;;6.00;4.15;;;;;;;21.12;60.36;101171.00;5101285;28;20067;-62
2022/06/26 01:00:02;;;;;;;9.38;4.45;;;;;;;21.11;60.36;101181.13;5090927;28;20243;-63
2022/06/26 01:02:30;;;;;;;4.60;3.60;;;;;;;21.11;60.48;101178.38;5098107;28;20048;-63
2022/06/26 01:04:58;;;;;;;7.05;4.78;;;;;;;21.09;60.41;101166.91;5102862;28;20065;-63
2022/06/26 01:07:27;;;;;;;4.65;4.10;;;;;;;21.09;60.50;101179.75;5096653;28;20426;-64
2022/06/26 01:09:55;;;;;;;6.68;4.78;;;;;;;21.08;60.55;101178.94;5101052;28;20481;-61
2022/06/26 01:12:23;;;;;;;7.32;5.15;;;;;;;21.07;60.74;101179.22;5098143;28;20051;-62
2022/06/26 01:14:52;;;;;;;6.30;4.43;;;;;;;21.04;60.46;101175.16;5095559;28;20071;-61
2022/06/26 01:17:19;;;;;;;6.55;4.20;;;;;;;21.04;60.45;101183.34;5101676;28;20054;-62
2022/06/26 01:19:47;;;;;;;7.35;4.00;;;;;;;21.04;60.55;101183.34;5100104;28;20132;-61
2022/06/26 01:22:15;;;;;;;5.05;4.15;;;;;;;21.02;60.78;101182.00;5094022;28;20059;-61
2022/06/26 01:24:44;;;;;;;8.07;4.38;;;;;;;21.01;60.73;101189.38;5102428;28;20052;-62
2022/06/26 01:27:12;;;;;;;7.93;4.68;;;;;;;20.99;60.89;101190.75;5087673;28;20400;-63
2022/06/26 01:29:40;;;;;;;6.40;4.50;;;;;;;20.97;60.69;101196.50;5097159;28;20040;-62
2022/06/26 01:32:08;;;;;;;5.55;3.58;;;;;;;20.95;60.99;101190.50;5100105;28;20047;-62
2022/06/26 01:34:36;;;;;;;6.65;3.50;;;;;;;20.93;60.82;101189.97;5102196;28;20044;-62
2022/06/26 01:37:04;;;;;;;5.38;3.60;;;;;;;20.92;60.90;101193.00;5097398;28;20059;-61
2022/06/26 01:39:32;;;;;;;5.38;3.30;;;;;;;20.90;60.76;101185.09;5090622;28;20047;-62
2022/06/26 01:42:01;;;;;;;6.18;3.28;;;;;;;20.89;60.71;101188.91;5100929;28;20135;-62
2022/06/26 01:44:29;;;;;;;5.78;3.10;;;;;;;20.87;60.91;101185.66;5092015;28;20051;-62
2022/06/26 01:46:57;;;;;;;5.90;3.50;;;;;;;20.87;61.04;101187.56;5098111;28;20052;-62
2022/06/26 01:49:25;;;;;;;4.82;3.05;;;;;;;20.82;60.80;101190.31;5101418;28;20044;-62
2022/06/26 01:51:54;;;;;;;4.35;2.90;;;;;;;20.84;60.92;101194.41;5099053;28;20075;-62
2022/06/26 01:54:21;;;;;;;4.50;2.80;;;;;;;20.82;60.96;101190.31;5090398;28;20043;-62
2022/06/26 01:56:49;;;;;;;6.53;3.13;;;;;;;20.81;60.74;101194.97;5102021;28;20049;-62
2022/06/26 01:59:18;;;;;;;4.10;2.83;;;;;;;20.79;61.05;101189.81;5093803;28;20083;-62
2022/06/26 02:01:46;;;;;;;6.05;2.90;;;;;;;20.78;61.00;101187.38;5099934;28;20063;-62
2022/06/26 02:04:16;;;;;;;4.28;2.90;;;;;;;20.72;60.81;101177.56;5098937;28;20393;-62
2022/06/26 02:06:44;;;;;;;4.53;2.58;;;;;;;20.74;60.88;101184.38;5095824;28;20116;-62
2022/06/26 02:13:36;;;;;;;5.88;3.88;;;;;;;20.73;61.13;101180.00;5098409;28;20287;-62
2022/06/26 02:14:46;;;;;;;6.28;3.83;;;;;;;20.70;60.86;101169.66;5095667;28;20048;-62
2022/06/26 02:17:14;;;;;;;4.10;2.88;;;;;;;20.69;61.18;101164.47;5093547;28;20103;-62
2022/06/26 02:19:41;;;;;;;5.70;3.45;;;;;;;20.66;61.08;101163.13;5101900;28;20089;-62
2022/06/26 02:22:09;;;;;;;5.25;3.53;;;;;;;20.66;60.95;101171.31;5101224;28;20271;-62
2022/06/26 02:24:38;;;;;;;7.35;3.03;;;;;;;20.67;60.96;101169.41;5105567;28;20051;-61
2022/06/26 02:27:06;;;;;;;4.60;3.13;;;;;;;20.66;61.07;101174.03;5104196;28;20051;-61
2022/06/26 02:29:34;;;;;;;6.47;4.00;;;;;;;20.64;60.78;101178.97;5101420;28;20184;-61
2022/06/26 02:32:03;;;;;;;6.55;3.45;;;;;;;20.63;60.80;101180.06;5105585;28;20047;-61
2022/06/26 02:34:31;;;;;;;5.70;3.78;;;;;;;20.62;60.97;101188.53;5104761;28;20070;-61
2022/06/26 02:36:59;;;;;;;5.72;4.05;;;;;;;20.56;60.78;101190.47;5105698;28;20039;-62
2022/06/26 02:39:26;;;;;;;5.47;3.50;;;;;;;20.60;60.80;101199.75;5104755;28;20074;-62
2022/06/26 02:41:54;;;;;;;5.05;3.45;;;;;;;20.59;60.59;101209.03;5101297;28;20056;-61
2022/06/26 02:44:22;;;;;;;5.35;3.55;;;;;;;20.59;60.73;101202.75;5097707;28;20477;-62
2022/06/26 02:46:49;;;;;;;7.13;3.53;;;;;;;20.58;60.69;101195.66;5105898;28;20048;-62
2022/06/26 02:49:19;;;;;;;7.65;3.40;;;;;;;20.58;60.65;101206.59;5102839;28;20074;-62
2022/06/26 02:51:46;;;;;;;5.03;3.83;;;;;;;20.43;60.57;101191.91;5105018;28;20614;-62
2022/06/26 02:54:14;;;;;;;7.50;3.97;;;;;;;20.55;60.65;101213.41;5104950;28;20075;-62
2022/06/26 02:56:42;;;;;;;7.07;3.83;;;;;;;20.54;60.48;101214.53;5104607;28;20086;-62
2022/06/26 02:59:10;;;;;;;6.50;3.75;;;;;;;20.54;60.51;101210.97;5099192;28;20104;-62
2022/06/26 03:01:37;;;;;;;5.72;3.42;;;;;;;20.52;60.52;101216.72;5097751;28;20055;-62
2022/06/26 03:04:05;;;;;;;6.80;3.65;;;;;;;20.49;60.50;101213.72;5104538;28;20044;-62
2022/06/26 03:06:35;;;;;;;4.85;3.22;;;;;;;20.50;60.33;101218.91;5098243;28;20079;-62
2022/06/26 03:09:02;;;;;;;5.50;3.65;;;;;;;20.36;60.43;101199.53;5102028;28;20083;-63
2022/06/26 03:11:30;;;;;;;5.43;3.42;;;;;;;20.45;60.40;101225.19;5103643;28;20055;-62
2022/06/26 03:13:58;;;;;;;5.65;3.33;;;;;;;20.45;60.24;101235.31;5101009;28;20118;-61
2022/06/26 03:16:26;;;;;;;6.72;3.70;;;;;;;20.43;60.56;101241.03;5102657;28;20101;-61
2022/06/26 03:18:53;;;;;;;5.22;3.60;;;;;;;20.42;60.39;101242.13;5107585;28;20054;-62
2022/06/26 03:21:21;;;;;;;8.02;4.28;;;;;;;20.40;60.33;101240.78;5097256;28;20040;-61
2022/06/26 03:24:02;;;;;;;9.90;4.05;;;;;;;20.38;60.40;101237.47;5103543;28;20047;-61
2022/06/26 03:26:31;;;;;;;9.60;3.45;;;;;;;20.37;60.22;101239.41;5091722;28;20052;-61
2022/06/26 03:28:59;;;;;;;4.93;3.40;;;;;;;20.24;60.25;101229.06;5100681;28;20071;-62
2022/06/26 03:31:28;;;;;;;5.72;3.70;;;;;;;20.33;60.33;101238.31;5100106;28;20073;-61
2022/06/26 03:33:57;;;;;;;5.72;3.20;;;;;;;20.24;60.26;101226.31;5104268;28;20109;-62
2022/06/26 03:36:26;;;;;;;4.40;3.17;;;;;;;20.30;60.45;101263.44;5100281;28;20520;-62
2022/06/26 03:38:56;;;;;;;7.57;4.03;;;;;;;20.31;60.35;101264.25;5104350;28;20048;-63
2022/06/26 03:41:24;;;;;;;6.93;3.67;;;;;;;20.28;60.25;101270.25;5096624;28;20403;-62
2022/06/26 03:43:51;;;;;;;7.03;3.55;;;;;;;20.25;60.33;101279.81;5100638;28;20158;-62
2022/06/26 03:46:19;;;;;;;5.07;2.92;;;;;;;20.25;60.14;101270.81;5105659;28;20075;-62
2022/06/26 03:48:47;;;;;;;8.30;3.42;;;;;;;20.23;60.23;101267.53;5098884;28;20082;-62
2022/06/26 03:51:15;;;;;;;6.18;3.15;;;;;;;20.19;60.10;101270.00;5098729;28;20040;-62
2022/06/26 03:53:43;;;;;;;5.45;3.40;;;;;;;20.20;60.32;101270.81;5099382;28;20086;-62
2022/06/26 03:56:12;;;;;;;6.63;3.20;;;;;;;20.17;60.18;101277.66;5103034;28;20105;-62
2022/06/26 03:58:40;;;;;;;5.88;3.05;;;;;;;20.18;60.07;101273.84;5093307;28;20051;-62
2022/06/26 04:01:07;;;;;;;6.68;3.47;;;;;;;20.17;59.97;101272.19;5089430;28;20067;-63
2022/06/26 04:03:35;;;;;;;5.35;3.55;;;;;;;20.17;60.02;101268.66;5103654;28;20520;-62
2022/06/26 04:06:03;;;;;;;7.82;3.47;;;;;;;20.15;59.93;101263.47;5102140;28;20055;-62
2022/06/26 04:08:31;;;;;;;7.47;3.42;;;;;;;20.15;59.97;101258.00;5101120;28;20055;-61
2022/06/26 04:10:59;;;;;;;4.53;3.20;;;;;;;20.14;60.08;101261.81;5100290;28;20322;-61
2022/06/26 04:13:28;;;;;;;5.32;3.35;;;;;;;20.12;60.04;101270.28;5097523;28;20047;-62
2022/06/26 04:15:56;;;;;;;5.45;3.42;;;;;;;20.11;60.03;101284.22;5102345;28;20051;-62
2022/06/26 04:18:23;;;;;;;5.10;3.15;;;;;;;20.10;60.00;101279.84;5099866;28;20085;-62
2022/06/26 04:20:51;;;;;;;5.90;3.30;;;;;;;20.10;59.75;101286.13;5099500;28;20079;-61
2022/06/26 04:23:19;;;;;;;6.25;3.65;;;;;;;20.05;59.85;101277.13;5097633;28;20070;-61
2022/06/26 04:25:47;;;;;;;8.38;4.00;;;;;;;20.07;59.77;101291.31;5095229;28;20080;-61
2022/06/26 04:28:15;;;;;;;6.13;3.58;;;;;;;20.07;59.88;101311.22;5096285;28;20125;-62
2022/06/26 04:30:44;;;;;;;7.55;3.55;;;;;;;20.06;60.03;101308.78;5093278;28;20481;-61
2022/06/26 04:33:11;;;;;;;5.55;3.28;;;;;;;20.05;59.74;101315.31;5102240;28;20488;-61
2022/06/26 04:35:39;;;;;;;7.18;3.72;;;;;;;20.04;59.76;101314.50;5103054;28;20048;-62
2022/06/26 04:38:07;;;;;;;6.35;3.65;;;;;;;20.03;59.83;101320.22;5099705;28;20469;-62
2022/06/26 04:40:35;;;;;;;11.20;3.60;;;;;;;20.02;59.89;101327.59;5099557;28;20067;-62
2022/06/26 04:43:02;;;;;;;4.30;3.00;;;;;;;20.01;59.63;101325.97;5099248;28;20505;-61
2022/06/26 04:45:36;;;;;;;8.05;3.45;;;;;;;20.00;60.06;101332.50;5098704;28;20048;-62
2022/06/26 04:48:06;;;;;;;5.07;2.95;;;;;;;19.99;59.67;101333.59;5099157;28;20200;-62
2022/06/26 04:50:33;;;;;;;6.22;3.83;;;;;;;19.98;59.65;101333.88;5101375;28;20043;-62
2022/06/26 04:53:04;;;;;;;5.72;3.35;;;;;;;19.97;59.95;101327.59;5098477;28;20425;-62
2022/06/26 04:55:32;;;;;;;5.57;3.20;;;;;;;19.96;59.87;101327.88;5099204;28;20051;-62
2022/06/26 04:58:00;;;;;;;8.57;3.83;;;;;;;19.95;59.80;101328.97;5099002;28;20509;-62
2022/06/26 05:00:28;;;;;;;5.60;3.47;;;;;;;19.94;60.03;101341.78;5098143;28;20055;-61
2022/06/26 05:02:56;;;;;;;6.60;3.88;;;;;;;19.92;59.92;101330.31;5100176;28;20072;-61
2022/06/26 05:05:25;;;;;;;7.47;3.33;;;;;;;19.92;59.78;101322.16;5093436;28;20075;-62
2022/06/26 05:07:53;;;;;;;7.93;3.55;;;;;;;19.92;59.90;101341.25;5102461;28;20048;-62
2022/06/26 05:10:21;;;;;;;6.10;4.05;;;;;;;19.92;59.82;101335.78;5102113;28;20047;-62
2022/06/26 05:12:49;;;;;;;8.43;4.10;;;;;;;19.92;59.71;101327.59;5098867;28;20090;-62
2022/06/26 05:15:17;;;;;;;7.05;3.40;;;;;;;19.93;59.65;101348.34;5095679;28;20070;-62
2022/06/26 05:17:45;;;;;;;9.40;3.15;;;;;;;19.94;59.56;101358.16;5095196;28;20462;-62
2022/06/26 05:20:13;;;;;;;6.78;4.60;;;;;;;19.95;59.68;101342.59;5099652;28;20082;-61
2022/06/26 05:22:42;;;;;;;8.60;4.03;;;;;;;19.95;59.45;101335.25;5096145;28;20044;-61
2022/06/26 05:25:10;;;;;;;6.30;3.75;;;;;;;19.96;59.69;101346.97;5093518;28;20151;-61
2022/06/26 05:27:37;;;;;;;8.30;4.40;;;;;;;19.96;59.55;101336.88;5098974;28;20158;-62
2022/06/26 05:30:06;;;;;;;7.22;4.03;;;;;;;19.95;59.66;101337.97;5098021;28;20052;-62
2022/06/26 05:32:34;;;;;;;6.85;3.72;;;;;;;19.95;59.50;101337.97;5101668;28;20055;-62
2022/06/26 05:35:02;;;;;;;5.70;3.70;;;;;;;19.96;59.51;101330.59;5099632;28;20044;-62
2022/06/26 05:37:30;;;;;;;7.20;3.80;;;;;;;19.97;59.37;101343.97;5098070;28;20063;-62
2022/06/26 05:39:59;;;;;;;4.93;3.10;;;;;;;19.98;58.94;101337.44;5094643;28;20085;-62
2022/06/26 05:42:27;;;;;;;4.70;3.47;;;;;;;20.00;59.39;101350.78;5092483;28;20048;-62
2022/06/26 05:44:54;;;;;;;6.95;3.88;;;;;;;20.04;59.28;101362.81;4738981;28;10000609;-61
2022/06/26 05:47:22;;;;;;;6.38;4.07;;;;;;;20.04;59.24;101363.63;5090795;28;20052;-65
2022/06/26 05:49:50;;;;;;;7.18;3.70;;;;;;;20.05;59.47;101373.44;5094413;28;20078;-62
2022/06/26 05:52:18;;;;;;;5.32;3.67;;;;;;;20.06;59.24;101377.81;5092157;28;20149;-62
2022/06/26 05:54:45;;;;;;;5.32;3.58;;;;;;;20.05;59.53;101378.91;5092251;28;20571;-61
2022/06/26 05:57:14;;;;;;;5.95;3.45;;;;;;;20.12;59.56;101386.81;5094152;28;20399;-61
2022/06/26 05:59:42;;;;;;;6.93;3.92;;;;;;;20.14;59.35;101373.72;5093665;28;20082;-61
2022/06/26 06:02:10;;;;;;;11.57;4.40;;;;;;;20.17;59.47;101378.63;5093971;28;20063;-61
2022/06/26 06:04:38;;;;;;;7.93;3.55;;;;;;;20.19;59.53;101386.53;5086449;28;20054;-62
2022/06/26 06:07:06;;;;;;;5.22;3.33;;;;;;;20.21;59.42;101387.91;5095218;28;20136;-61
2022/06/26 06:09:34;;;;;;;6.40;2.95;;;;;;;20.24;59.62;101389.28;5092879;28;20059;-62
2022/06/26 06:12:02;;;;;;;7.75;3.75;;;;;;;20.23;59.55;101383.00;5099486;28;20044;-62
2022/06/26 06:14:31;;;;;;;5.35;3.15;;;;;;;20.24;59.47;101375.63;5091644;28;20072;-62
2022/06/26 06:17:35;;;;;;;8.68;3.00;;;;;;;20.26;59.43;101382.47;5100222;28;20048;-62
2022/06/26 06:19:47;;;;;;;4.30;2.90;;;;;;;20.27;59.47;101389.56;5090412;28;20489;-62
2022/06/26 06:22:14;;;;;;;7.97;3.28;;;;;;;20.26;59.49;101379.72;5099229;28;20056;-62
2022/06/26 06:24:42;;;;;;;3.40;2.42;;;;;;;20.25;59.19;101374.53;5089162;28;20059;-63
2022/06/26 06:27:10;;;;;;;5.75;2.88;;;;;;;20.25;59.36;101377.25;5092171;28;20114;-63
2022/06/26 06:29:39;;;;;;;6.68;2.88;;;;;;;20.24;59.19;101392.00;5090460;28;20051;-65
2022/06/26 06:32:08;;;;;;;6.32;2.63;;;;;;;20.10;59.18;101376.19;5097772;28;20056;-62
2022/06/26 06:34:36;;;;;;;7.28;2.92;;;;;;;20.20;59.46;101394.47;5096023;28;20059;-64
2022/06/26 06:37:04;;;;;;;6.65;2.88;;;;;;;20.18;59.36;101399.38;5090344;28;20056;-63
2022/06/26 06:39:31;;;;;;;5.47;2.85;;;;;;;20.18;59.55;101398.56;5099077;28;20060;-64
2022/06/26 06:41:59;;;;;;;4.80;2.67;;;;;;;20.17;59.51;101403.19;5096567;28;20060;-64
2022/06/26 06:44:27;;;;;;;3.72;2.60;;;;;;;20.16;59.61;101412.47;5096875;28;20082;-64
2022/06/26 06:46:56;;;;;;;5.35;3.20;;;;;;;20.16;59.55;101423.38;5100590;28;20048;-63
2022/06/26 06:49:24;;;;;;;4.63;2.33;;;;;;;20.13;59.57;101430.22;5101585;28;20063;-64
2022/06/26 06:51:52;;;;;;;7.20;3.10;;;;;;;20.15;59.62;101435.41;5098365;28;20078;-64
2022/06/26 06:54:20;;;;;;;4.47;2.33;;;;;;;20.14;59.48;101440.03;5100107;28;20052;-63
2022/06/26 06:56:47;;;;;;;6.53;3.17;;;;;;;20.13;59.67;101460.22;5094417;28;20078;-64
2022/06/26 06:59:16;;;;;;;4.80;2.55;;;;;;;20.13;59.42;101465.69;5092007;28;20087;-64
2022/06/26 07:01:43;;;;;;;3.67;2.10;;;;;;;20.13;59.57;101468.41;5092097;28;20104;-65
2022/06/26 07:04:13;;;;;;;4.63;2.42;;;;;;;20.15;59.61;101459.97;5095195;28;20048;-64
2022/06/26 07:06:41;;;;;;;3.42;2.35;;;;;;;20.15;59.60;101473.59;5097384;28;20063;-64
2022/06/26 07:09:09;;;;;;;6.30;2.50;;;;;;;20.14;59.79;101475.53;5099386;28;20075;-64
2022/06/26 07:11:36;;;;;;;5.78;2.42;;;;;;;20.16;59.56;101477.97;5097185;28;20044;-65
2022/06/26 07:14:04;;;;;;;6.68;2.60;;;;;;;20.17;59.61;101484.25;5095799;28;20071;-66
2022/06/26 07:16:32;;;;;;;5.53;2.63;;;;;;;20.14;59.68;101472.78;5094583;28;20073;-65
2022/06/26 07:19:00;;;;;;;6.50;2.63;;;;;;;20.15;59.90;101468.97;5093931;28;20048;-65
2022/06/26 07:21:29;;;;;;;7.05;2.72;;;;;;;20.15;59.79;101468.16;5100048;28;20072;-64
2022/06/26 07:23:57;;;;;;;3.90;2.05;;;;;;;20.12;59.87;101465.97;5100437;28;20079;-65
2022/06/26 07:26:25;;;;;;;6.68;2.17;;;;;;;20.14;59.87;101472.78;5093228;28;20085;-65
2022/06/26 07:28:53;;;;;;;3.72;2.35;;;;;;;20.14;59.77;101478.25;5097811;28;20075;-64
2022/06/26 07:31:21;;;;;;;5.78;2.33;;;;;;;20.13;59.81;101481.25;5100504;28;20047;-65
2022/06/26 07:36:35;;;;;;;7.70;2.65;;;;;;;20.01;60.00;101469.75;5101304;28;20118;-65
2022/06/26 07:39:03;;;;;;;7.57;2.42;;;;;;;20.13;60.16;101482.06;5097654;28;20094;-64
2022/06/26 07:41:31;;;;;;;4.43;2.88;;;;;;;20.13;60.11;101482.06;5097370;28;20071;-65
2022/06/26 07:43:59;;;;;;;2.85;1.88;;;;;;;20.14;59.89;101475.53;5100783;28;20102;-65
2022/06/26 07:46:27;;;;;;;4.22;1.98;;;;;;;20.14;60.00;101488.34;5099457;28;20550;-65
2022/06/26 07:48:55;;;;;;;2.38;1.70;;;;;;;20.14;59.91;101488.34;5099683;28;20463;-64
2022/06/26 07:51:23;;;;;;;4.32;1.85;;;;;;;20.12;60.21;101485.88;5097252;28;20083;-64
2022/06/26 07:53:52;;;;;;;5.43;1.98;;;;;;;20.16;59.96;101483.44;5100090;28;20532;-64
2022/06/26 07:56:20;;;;;;;4.03;2.13;;;;;;;20.17;59.97;101479.63;5102616;28;20048;-64
2022/06/26 07:58:48;;;;;;;3.53;1.88;;;;;;;20.17;60.12;101493.25;5095694;28;20066;-64
2022/06/26 08:01:16;;;;;;;5.13;2.42;;;;;;;20.18;59.95;101499.53;5098414;28;20044;-63
2022/06/26 08:03:44;;;;;;;4.70;1.90;;;;;;;20.16;59.82;101499.81;5096376;28;20117;-64
2022/06/26 08:06:13;;;;;;;3.30;1.77;;;;;;;20.11;59.91;101497.06;5099239;28;20101;-64
2022/06/26 08:08:41;;;;;;;2.47;1.77;;;;;;;20.18;59.90;101499.53;5100771;28;20076;-65
2022/06/26 08:11:10;;;;;;;3.80;1.98;;;;;;;20.18;59.87;101505.00;5100250;28;20142;-64
2022/06/26 08:13:38;;;;;;;5.18;2.10;;;;;;;20.17;59.62;101497.91;5097880;28;20141;-65
2022/06/26 08:16:06;;;;;;;6.93;1.75;;;;;;;20.16;59.85;101502.53;5101516;28;20083;-65
2022/06/26 08:18:34;;;;;;;4.13;1.80;;;;;;;20.18;59.69;101502.28;5093882;28;20056;-65
2022/06/26 08:22:00;;;;;;;5.28;2.20;;;;;;;20.19;59.87;101512.09;5095964;28;20052;-65
2022/06/26 08:23:50;;;;;;;6.03;2.15;;;;;;;20.16;59.68;101510.72;5100403;28;20063;-65
2022/06/26 08:26:20;;;;;;;3.10;1.67;;;;;;;20.13;59.71;101506.63;5101144;28;20090;-64
2022/06/26 08:28:48;;;;;;;2.80;1.92;;;;;;;20.14;59.78;101508.28;5098502;28;20089;-65
2022/06/26 08:31:16;;;;;;;3.92;2.00;;;;;;;20.14;59.50;101496.53;5091966;28;20075;-66
2022/06/26 08:33:43;;;;;;;4.13;2.03;;;;;;;20.12;59.87;101491.34;5099255;28;20048;-65
2022/06/26 08:36:11;;;;;;;3.20;1.70;;;;;;;20.17;59.71;101497.91;5098750;28;20063;-65
2022/06/26 08:38:40;;;;;;;4.88;2.20;;;;;;;20.17;59.67;101504.19;5101372;28;20068;-65
2022/06/26 08:41:09;;;;;;;2.85;1.52;;;;;;;20.17;59.64;101515.09;5098151;28;20108;-65
2022/06/26 08:43:40;;;;;;;4.97;1.80;;;;;;;20.18;59.58;101519.47;5096688;28;20134;-64
2022/06/26 08:46:08;;;;;;;3.42;1.98;;;;;;;20.17;59.40;101519.75;5099680;28;20056;-64
2022/06/26 08:48:43;;;;;;;3.45;1.80;;;;;;;20.15;59.34;101523.56;5094150;28;20074;-64
2022/06/26 08:51:12;;;;;;;4.03;1.60;;;;;;;20.15;59.31;101529.00;5099980;28;20612;-64
2022/06/26 08:53:41;;;;;;;5.22;2.25;;;;;;;20.14;59.42;101535.56;5099805;28;20056;-65
2022/06/26 08:56:09;;;;;;;5.05;2.17;;;;;;;20.08;59.49;101519.44;5101359;28;20082;-65
2022/06/26 08:58:37;;;;;;;5.78;1.98;;;;;;;20.13;59.42;101517.53;5097223;28;20044;-64
2022/06/26 09:01:07;;;;;;;3.83;1.88;;;;;;;20.14;59.57;101521.09;5099320;28;20051;-64
2022/06/26 09:03:35;;;;;;;3.75;2.10;;;;;;;20.08;59.45;101513.97;5101764;28;20040;-64
2022/06/26 09:06:04;;;;;;;3.08;1.90;;;;;;;20.15;59.40;101512.63;5102622;28;20043;-64
2022/06/26 09:08:43;;;;;;;3.67;2.00;;;;;;;20.16;59.41;101516.19;5098492;28;20059;-64
2022/06/26 09:11:11;;;;;;;4.45;2.00;;;;;;;20.16;59.40;101513.47;5103223;28;20047;-64
2022/06/26 09:13:40;;;;;;;4.07;1.92;;;;;;;20.18;59.36;101521.38;5101500;28;20217;-64
2022/06/26 09:16:10;;;;;;;4.30;2.05;;;;;;;20.18;59.41;101519.47;5097604;28;20778;-64
2022/06/26 09:18:40;;;;;;;2.40;1.67;;;;;;;20.18;59.38;101519.47;5095236;28;20067;-63
2022/06/26 09:21:09;;;;;;;3.97;2.10;;;;;;;20.19;59.45;101501.19;5099138;28;20075;-65
2022/06/26 09:23:39;;;;;;;5.03;2.28;;;;;;;20.19;59.40;101510.19;5097163;28;20044;-63
2022/06/26 09:26:07;;;;;;;6.57;1.80;;;;;;;20.20;59.39;101514.56;5098966;28;20181;-64
2022/06/26 09:28:34;;;;;;;6.18;2.13;;;;;;;20.19;59.36;101518.38;5098830;28;20055;-63
2022/06/26 09:31:06;;;;;;;4.18;1.90;;;;;;;20.19;59.24;101523.84;5097107;28;20508;-64
2022/06/26 09:33:37;;;;;;;3.88;1.90;;;;;;;20.19;59.15;101539.41;5100795;28;20064;-63
2022/06/26 09:36:06;;;;;;;2.92;1.60;;;;;;;20.21;59.52;101542.69;5101425;28;20051;-63
2022/06/26 09:38:35;;;;;;;3.42;1.88;;;;;;;20.20;59.44;101532.84;5097379;28;20048;-63
2022/06/26 09:41:05;;;;;;;4.75;1.77;;;;;;;20.20;59.38;101539.13;5100357;28;20301;-63
2022/06/26 09:43:35;;;;;;;3.78;1.85;;;;;;;20.21;59.33;101532.56;5094846;28;20040;-63
2022/06/26 09:46:05;;;;;;;4.85;2.03;;;;;;;20.21;59.43;101524.38;5099785;28;20381;-64
2022/06/26 09:48:36;;;;;;;5.22;2.13;;;;;;;20.23;59.29;101541.31;5095816;28;20117;-66
2022/06/26 09:51:08;;;;;;;3.55;1.88;;;;;;;20.23;59.33;101535.03;5085418;28;20139;-65
2022/06/26 09:53:37;;;;;;;2.75;1.95;;;;;;;20.23;59.30;101544.03;5097986;28;20048;-64
2022/06/26 09:56:06;;;;;;;4.25;2.42;;;;;;;20.23;59.25;101543.22;5098832;28;20052;-64
2022/06/26 09:58:34;;;;;;;4.53;2.53;;;;;;;20.22;59.25;101547.03;5095653;28;20664;-64
2022/06/26 10:06:37;;;;;;;2.92;1.65;;;;;;;20.22;59.26;101549.78;5097986;28;20107;-64
2022/06/26 10:09:07;;;;;;;3.38;1.65;;;;;;;20.23;59.27;101549.50;5098049;28;20048;-64
2022/06/26 10:11:37;;;;;;;6.55;2.30;;;;;;;20.23;59.31;101551.41;5098585;28;20090;-64
2022/06/26 10:14:18;;;;;;;2.22;1.70;;;;;;;20.27;59.30;101555.25;5096468;28;20185;-64
2022/06/26 10:17:17;;;;;;;4.50;2.10;;;;;;;20.71;58.20;101569.28;5095428;28;20067;-64
2022/06/26 10:19:51;;;;;;;5.40;2.35;;;;;;;20.49;58.88;101565.97;5099857;28;20194;-64
2022/06/26 10:22:19;;;;;;;5.25;2.33;;;;;;;20.58;58.61;101553.44;5099471;28;20086;-64
2022/06/26 10:24:55;;;;;;;8.23;2.90;;;;;;;20.46;58.86;101559.97;5096334;28;20048;-64
2022/06/26 10:27:27;;;;;;;3.63;2.00;;;;;;;20.42;59.00;101558.88;5097934;28;20057;-64
2022/06/26 10:30:06;;;;;;;6.03;2.17;;;;;;;20.85;57.95;101570.34;5097688;28;20063;-64
2022/06/26 10:32:34;;;;;;;3.65;2.10;;;;;;;20.67;58.52;101560.00;5094474;28;20072;-64
2022/06/26 10:35:05;;;;;;;3.33;1.83;;;;;;;20.55;58.88;101564.91;5095607;28;20056;-64
2022/06/26 10:37:44;;;;;;;4.32;1.75;;;;;;;20.48;58.93;101564.34;5095966;28;20147;-64
2022/06/26 10:42:52;;;;;;;4.82;2.20;;;;;;;20.46;59.09;101570.06;5101526;28;20150;-64
2022/06/26 10:43:01;;;;;;;4.40;1.88;;;;;;;20.45;59.10;101569.25;5093003;28;20099;-64
2022/06/26 10:45:31;;;;;;;4.93;2.38;;;;;;;20.45;59.05;101565.69;5100046;28;20048;-64
2022/06/26 10:48:00;;;;;;;4.47;1.92;;;;;;;20.45;59.17;101561.06;5095856;28;20048;-64
2022/06/26 10:50:32;;;;;;;3.42;2.00;;;;;;;20.46;58.99;101564.59;5096610;28;20048;-64
2022/06/26 10:53:18;;;;;;;3.92;1.80;;;;;;;20.83;58.03;101561.59;5095262;28;20041;-64
2022/06/26 10:55:49;;;;;;;7.75;2.45;;;;;;;20.77;58.05;101563.56;5099265;28;20051;-64
2022/06/26 10:58:22;;;;;;;4.40;2.13;;;;;;;20.63;58.59;101564.34;5099202;28;20071;-64
2022/06/26 11:00:51;;;;;;;5.00;1.70;;;;;;;20.56;58.62;101572.81;5101016;28;20076;-64
2022/06/26 11:03:20;;;;;;;2.88;1.60;;;;;;;20.51;58.81;101558.34;5097358;28;20048;-64
2022/06/26 11:05:58;;;;;;;5.43;1.88;;;;;;;20.72;58.22;101558.09;5099676;28;20519;-64
2022/06/26 11:08:30;;;;;;;3.47;1.85;;;;;;;20.78;58.06;101558.91;5091952;28;20056;-64
2022/06/26 11:11:02;;;;;;;2.40;1.60;;;;;;;20.78;57.99;101554.25;5100635;28;20051;-65
2022/06/26 11:13:30;;;;;;;3.35;1.70;;;;;;;20.65;58.43;101546.59;5102324;28;20040;-64
2022/06/26 11:15:59;;;;;;;5.13;1.55;;;;;;;20.58;58.61;101537.03;5098796;28;20044;-64
2022/06/26 11:18:26;;;;;;;4.85;2.38;;;;;;;20.80;57.78;101538.38;5094192;28;20055;-65
2022/06/26 11:20:56;;;;;;;2.60;1.77;;;;;;;20.70;58.18;101532.94;5096335;28;20056;-64
2022/06/26 11:23:26;;;;;;;4.72;1.70;;;;;;;20.64;58.44;101531.31;5101291;28;20188;-64
2022/06/26 11:25:56;;;;;;;5.75;1.95;;;;;;;20.62;58.56;101525.31;5094732;28;20083;-65
2022/06/26 11:28:29;;;;;;;3.33;1.73;;;;;;;20.60;58.34;101530.22;5099289;28;20117;-65
2022/06/26 11:30:57;;;;;;;2.05;1.40;;;;;;;20.60;58.16;101532.94;5099573;28;20048;-64
2022/06/26 11:33:26;;;;;;;4.82;1.73;;;;;;;20.61;58.38;101534.59;5098620;28;20044;-64
2022/06/26 11:36:01;;;;;;;3.47;1.75;;;;;;;20.61;58.44;101529.13;5102624;28;20086;-65
2022/06/26 11:38:29;;;;;;;4.75;2.03;;;;;;;20.75;57.93;101534.88;5098091;28;20082;-65
2022/06/26 11:40:59;;;;;;;4.28;1.70;;;;;;;20.73;57.91;101537.88;5097229;28;20052;-65
2022/06/26 11:43:26;;;;;;;4.80;1.65;;;;;;;20.70;58.21;101543.88;5094357;28;20060;-65